sensor_id;sensor_type;location;lat;lon;timestamp;pressure;altitude;pressure_sealevel;temperature;humidity
6680;BME280;3376;42.664;23.346;2023-06-26T00:02:26;94356.72;;;21.75;100.00
6680;BME280;3376;42.664;23.346;2023-06-26T00:04:54;94361.63;;;21.83;100.00
6680;BME280;3376;42.664;23.346;2023-06-26T00:07:21;94376.38;;;21.84;100.00
6680;BME280;3376;42.664;23.346;2023-06-26T00:09:47;94372.13;;;21.78;100.00
6680;BME280;3376;42.664;23.346;2023-06-26T00:12:14;94363.94;;;21.80;100.00
6680;BME280;3376;42.664;23.346;2023-06-26T00:14:41;94366.09;;;21.83;100.00
6680;BME280;3376;42.664;23.346;2023-06-26T00:17:07;94367.44;;;21.85;100.00
6680;BME280;3376;42.664;23.346;2023-06-26T00:19:34;94373.25;;;21.87;100.00
6680;BME280;3376;42.664;23.346;2023-06-26T00:22:03;94357.78;;;21.74;100.00
6680;BME280;3376;42.664;23.346;2023-06-26T00:24:29;94359.63;;;21.74;100.00
6680;BME280;3376;42.664;23.346;2023-06-26T00:26:56;94342.16;;;21.68;100.00
6680;BME280;3376;42.664;23.346;2023-06-26T00:29:24;94359.25;;;21.65;100.00
6680;BME280;3376;42.664;23.346;2023-06-26T00:31:51;94366.41;;;21.65;100.00
6680;BME280;3376;42.664;23.346;2023-06-26T00:34:18;94357.44;;;21.66;100.00
6680;BME280;3376;42.664;23.346;2023-06-26T00:36:44;94352.91;;;21.61;100.00
6680;BME280;3376;42.664;23.346;2023-06-26T00:39:13;94362.09;;;21.59;100.00
6680;BME280;3376;42.664;23.346;2023-06-26T00:41:39;94350.19;;;21.56;100.00
6680;BME280;3376;42.664;23.346;2023-06-26T00:44:06;94340.09;;;21.48;100.00
6680;BME280;3376;42.664;23.346;2023-06-26T00:46:34;94349.31;;;21.46;100.00
6680;BME280;3376;42.664;23.346;2023-06-26T00:49:03;94358.53;;;21.48;100.00
6680;BME280;3376;42.664;23.346;2023-06-26T00:51:30;94358.47;;;21.43;100.00
6680;BME280;3376;42.664;23.346;2023-06-26T00:53:57;94330.91;;;21.29;100.00
6680;BME280;3376;42.664;23.346;2023-06-26T00:56:26;94342.31;;;21.35;100.00
6680;BME280;3376;42.664;23.346;2023-06-26T00:58:53;94346.78;;;21.34;100.00
6680;BME280;3376;42.664;23.346;2023-06-26T01:01:20;94338.34;;;21.32;100.00
6680;BME280;3376;42.664;23.346;2023-06-26T01:03:52;94336.53;;;21.38;100.00
6680;BME280;3376;42.664;23.346;2023-06-26T01:06:20;94338.75;;;21.24;100.00
6680;BME280;3376;42.664;23.346;2023-06-26T01:08:49;94334.16;;;21.15;100.00
6680;BME280;3376;42.664;23.346;2023-06-26T01:11:16;94316.38;;;21.05;100.00
6680;BME280;3376;42.664;23.346;2023-06-26T01:13:45;94332.81;;;20.95;100.00
6680;BME280;3376;42.664;23.346;2023-06-26T01:16:13;94322.63;;;20.99;100.00
6680;BME280;3376;42.664;23.346;2023-06-26T01:18:44;94318.94;;;21.00;100.00
6680;BME280;3376;42.664;23.346;2023-06-26T01:21:14;94320.56;;;21.01;100.00
6680;BME280;3376;42.664;23.346;2023-06-26T01:23:49;94325.31;;;21.04;100.00
6680;BME280;3376;42.664;23.346;2023-06-26T01:26:20;94323.75;;;21.03;100.00
6680;BME280;3376;42.664;23.346;2023-06-26T01:28:49;94317.03;;;20.95;100.00
6680;BME280;3376;42.664;23.346;2023-06-26T01:31:17;94320.22;;;20.97;100.00
6680;BME280;3376;42.664;23.346;2023-06-26T01:33:46;94315.13;;;20.91;100.00
6680;BME280;3376;42.664;23.346;2023-06-26T01:36:13;94301.03;;;20.80;100.00
6680;BME280;3376;42.664;23.346;2023-06-26T01:38:40;94308.66;;;20.98;100.00
6680;BME280;3376;42.664;23.346;2023-06-26T01:41:07;94313.22;;;21.03;100.00
6680;BME280;3376;42.664;23.346;2023-06-26T01:43:43;94302.97;;;20.90;100.00
6680;BME280;3376;42.664;23.346;2023-06-26T01:46:18;94304.66;;;20.96;100.00
6680;BME280;3376;42.664;23.346;2023-06-26T01:48:52;94302.38;;;20.99;100.00
6680;BME280;3376;42.664;23.346;2023-06-26T01:51:27;94298.03;;;20.93;100.00
6680;BME280;3376;42.664;23.346;2023-06-26T01:53:56;94312.72;;;20.89;100.00
6680;BME280;3376;42.664;23.346;2023-06-26T01:56:24;94291.25;;;20.97;100.00
6680;BME280;3376;42.664;23.346;2023-06-26T01:58:54;94293.56;;;20.94;100.00
6680;BME280;3376;42.664;23.346;2023-06-26T02:01:21;94304.41;;;20.97;100.00
6680;BME280;3376;42.664;23.346;2023-06-26T02:03:48;94298.78;;;21.11;100.00
6680;BME280;3376;42.664;23.346;2023-06-26T02:06:15;94280.34;;;20.89;100.00
6680;BME280;3376;42.664;23.346;2023-06-26T02:08:42;94285.69;;;20.77;100.00
6680;BME280;3376;42.664;23.346;2023-06-26T02:11:08;94305.97;;;20.77;100.00
6680;BME280;3376;42.664;23.346;2023-06-26T02:13:35;94303.34;;;20.77;100.00
6680;BME280;3376;42.664;23.346;2023-06-26T02:16:03;94309.88;;;20.74;100.00
6680;BME280;3376;42.664;23.346;2023-06-26T02:18:30;94314.84;;;20.71;100.00
6680;BME280;3376;42.664;23.346;2023-06-26T02:20:57;94304.63;;;20.74;100.00
6680;BME280;3376;42.664;23.346;2023-06-26T02:23:24;94310.63;;;20.70;100.00
6680;BME280;3376;42.664;23.346;2023-06-26T02:25:50;94311.56;;;20.80;100.00
6680;BME280;3376;42.664;23.346;2023-06-26T02:28:17;94313.44;;;20.85;100.00
6680;BME280;3376;42.664;23.346;2023-06-26T02:30:44;94312.19;;;20.87;100.00
6680;BME280;3376;42.664;23.346;2023-06-26T02:33:12;94309.56;;;20.87;100.00
6680;BME280;3376;42.664;23.346;2023-06-26T02:35:39;94309.63;;;20.92;100.00
6680;BME280;3376;42.664;23.346;2023-06-26T02:38:06;94287.69;;;20.87;100.00
6680;BME280;3376;42.664;23.346;2023-06-26T02:40:33;94310.78;;;21.01;100.00
6680;BME280;3376;42.664;23.346;2023-06-26T02:43:00;94320.94;;;21.10;100.00
6680;BME280;3376;42.664;23.346;2023-06-26T02:45:27;94311.41;;;21.09;100.00
6680;BME280;3376;42.664;23.346;2023-06-26T02:47:53;94315.84;;;21.03;100.00
6680;BME280;3376;42.664;23.346;2023-06-26T02:50:22;94317.38;;;20.99;100.00
6680;BME280;3376;42.664;23.346;2023-06-26T02:52:48;94213.56;;;20.19;100.00
6680;BME280;3376;42.664;23.346;2023-06-26T02:55:17;94311.44;;;20.92;100.00
6680;BME280;3376;42.664;23.346;2023-06-26T02:57:44;94309.69;;;20.97;100.00
6680;BME280;3376;42.664;23.346;2023-06-26T03:00:12;94318.38;;;20.98;100.00
6680;BME280;3376;42.664;23.346;2023-06-26T03:02:39;94318.16;;;20.99;100.00
6680;BME280;3376;42.664;23.346;2023-06-26T03:05:06;94324.84;;;21.07;100.00
6680;BME280;3376;42.664;23.346;2023-06-26T03:07:35;94322.19;;;21.07;100.00
6680;BME280;3376;42.664;23.346;2023-06-26T03:10:02;94320.69;;;21.11;100.00
6680;BME280;3376;42.664;23.346;2023-06-26T03:12:28;94296.03;;;21.00;100.00
6680;BME280;3376;42.664;23.346;2023-06-26T03:14:55;94312.16;;;21.04;100.00
6680;BME280;3376;42.664;23.346;2023-06-26T03:17:22;94223.78;;;20.53;100.00
6680;BME280;3376;42.664;23.346;2023-06-26T03:19:48;94307.75;;;21.10;100.00
6680;BME280;3376;42.664;23.346;2023-06-26T03:22:15;94300.25;;;21.01;100.00
6680;BME280;3376;42.664;23.346;2023-06-26T03:24:45;94310.38;;;21.10;100.00
6680;BME280;3376;42.664;23.346;2023-06-26T03:27:11;94303.19;;;21.05;100.00
6680;BME280;3376;42.664;23.346;2023-06-26T03:29:38;94324.66;;;20.97;100.00
6680;BME280;3376;42.664;23.346;2023-06-26T03:32:06;94316.06;;;21.01;100.00
6680;BME280;3376;42.664;23.346;2023-06-26T03:34:32;94321.13;;;21.03;100.00
6680;BME280;3376;42.664;23.346;2023-06-26T03:36:59;94320.72;;;20.94;100.00
6680;BME280;3376;42.664;23.346;2023-06-26T03:39:27;94333.06;;;20.94;100.00
6680;BME280;3376;42.664;23.346;2023-06-26T03:41:55;94330.13;;;20.90;100.00
6680;BME280;3376;42.664;23.346;2023-06-26T03:44:25;94325.16;;;20.94;100.00
6680;BME280;3376;42.664;23.346;2023-06-26T03:46:52;94311.19;;;20.93;100.00
6680;BME280;3376;42.664;23.346;2023-06-26T03:49:19;94323.88;;;20.96;100.00
6680;BME280;3376;42.664;23.346;2023-06-26T03:51:46;94314.63;;;20.94;100.00
6680;BME280;3376;42.664;23.346;2023-06-26T03:54:13;94311.63;;;20.85;100.00
6680;BME280;3376;42.664;23.346;2023-06-26T03:56:40;94324.66;;;20.97;100.00
6680;BME280;3376;42.664;23.346;2023-06-26T03:59:08;94312.44;;;20.86;100.00
6680;BME280;3376;42.664;23.346;2023-06-26T04:01:36;94313.50;;;20.90;100.00
6680;BME280;3376;42.664;23.346;2023-06-26T04:04:03;94318.28;;;21.10;100.00
6680;BME280;3376;42.664;23.346;2023-06-26T04:06:30;94307.00;;;21.14;100.00
6680;BME280;3376;42.664;23.346;2023-06-26T04:08:57;94308.38;;;21.17;100.00
6680;BME280;3376;42.664;23.346;2023-06-26T04:11:24;94300.50;;;21.00;100.00
6680;BME280;3376;42.664;23.346;2023-06-26T04:13:51;94308.22;;;21.07;100.00
6680;BME280;3376;42.664;23.346;2023-06-26T04:16:20;94317.59;;;21.19;100.00
6680;BME280;3376;42.664;23.346;2023-06-26T04:18:50;94319.34;;;21.30;100.00
6680;BME280;3376;42.664;23.346;2023-06-26T04:21:17;94320.56;;;21.44;100.00
6680;BME280;3376;42.664;23.346;2023-06-26T04:23:43;94317.41;;;21.47;100.00
6680;BME280;3376;42.664;23.346;2023-06-26T04:26:10;94324.22;;;21.43;100.00
6680;BME280;3376;42.664;23.346;2023-06-26T04:28:38;94324.16;;;21.38;100.00
6680;BME280;3376;42.664;23.346;2023-06-26T04:31:05;94331.38;;;21.48;100.00
6680;BME280;3376;42.664;23.346;2023-06-26T04:33:33;94324.06;;;21.55;100.00
6680;BME280;3376;42.664;23.346;2023-06-26T04:36:01;94315.28;;;21.71;100.00
6680;BME280;3376;42.664;23.346;2023-06-26T04:38:29;94332.06;;;21.81;100.00
6680;BME280;3376;42.664;23.346;2023-06-26T04:40:56;94336.22;;;21.77;100.00
6680;BME280;3376;42.664;23.346;2023-06-26T04:43:22;94335.72;;;21.80;100.00
6680;BME280;3376;42.664;23.346;2023-06-26T04:45:49;94332.69;;;21.93;100.00
6680;BME280;3376;42.664;23.346;2023-06-26T04:48:16;94339.13;;;22.02;100.00
6680;BME280;3376;42.664;23.346;2023-06-26T04:50:45;94335.97;;;22.05;100.00
6680;BME280;3376;42.664;23.346;2023-06-26T04:53:18;94331.25;;;22.07;100.00
6680;BME280;3376;42.664;23.346;2023-06-26T04:55:44;94339.75;;;22.14;100.00
6680;BME280;3376;42.664;23.346;2023-06-26T04:58:11;94334.72;;;22.13;100.00
6680;BME280;3376;42.664;23.346;2023-06-26T05:00:38;94340.31;;;22.22;100.00
6680;BME280;3376;42.664;23.346;2023-06-26T05:03:07;94336.72;;;22.33;100.00
6680;BME280;3376;42.664;23.346;2023-06-26T05:05:34;94338.34;;;22.39;100.00
6680;BME280;3376;42.664;23.346;2023-06-26T05:08:15;94334.09;;;22.33;100.00
6680;BME280;3376;42.664;23.346;2023-06-26T05:10:42;94340.44;;;22.32;100.00
6680;BME280;3376;42.664;23.346;2023-06-26T05:13:09;94352.69;;;22.16;100.00
6680;BME280;3376;42.664;23.346;2023-06-26T05:15:35;94353.53;;;22.22;100.00
6680;BME280;3376;42.664;23.346;2023-06-26T05:18:02;94350.66;;;22.23;100.00
6680;BME280;3376;42.664;23.346;2023-06-26T05:20:30;94356.19;;;22.27;100.00
6680;BME280;3376;42.664;23.346;2023-06-26T05:22:57;94357.72;;;22.17;100.00
6680;BME280;3376;42.664;23.346;2023-06-26T05:25:26;94307.00;;;21.84;100.00
6680;BME280;3376;42.664;23.346;2023-06-26T05:27:55;94363.00;;;22.17;100.00
6680;BME280;3376;42.664;23.346;2023-06-26T05:30:22;94354.84;;;22.19;100.00
6680;BME280;3376;42.664;23.346;2023-06-26T05:32:51;94364.06;;;22.22;100.00
6680;BME280;3376;42.664;23.346;2023-06-26T05:35:20;94355.97;;;22.28;100.00
6680;BME280;3376;42.664;23.346;2023-06-26T05:37:48;94362.31;;;22.32;100.00
6680;BME280;3376;42.664;23.346;2023-06-26T05:40:16;94360.44;;;22.28;100.00
6680;BME280;3376;42.664;23.346;2023-06-26T05:42:45;94363.97;;;22.11;100.00
6680;BME280;3376;42.664;23.346;2023-06-26T05:45:12;94352.34;;;22.07;100.00
6680;BME280;3376;42.664;23.346;2023-06-26T05:47:38;94365.09;;;22.15;100.00
6680;BME280;3376;42.664;23.346;2023-06-26T05:50:07;94365.69;;;22.23;100.00
6680;BME280;3376;42.664;23.346;2023-06-26T05:52:35;94333.38;;;22.10;100.00
6680;BME280;3376;42.664;23.346;2023-06-26T05:55:02;94368.38;;;22.28;100.00
6680;BME280;3376;42.664;23.346;2023-06-26T05:57:30;94366.50;;;22.23;100.00
6680;BME280;3376;42.664;23.346;2023-06-26T05:59:59;94372.50;;;22.18;100.00
6680;BME280;3376;42.664;23.346;2023-06-26T06:02:25;94349.28;;;22.21;100.00
6680;BME280;3376;42.664;23.346;2023-06-26T06:04:52;94346.78;;;22.36;100.00
6680;BME280;3376;42.664;23.346;2023-06-26T06:07:19;94365.22;;;22.57;100.00
6680;BME280;3376;42.664;23.346;2023-06-26T06:09:47;94370.91;;;22.76;100.00
6680;BME280;3376;42.664;23.346;2023-06-26T06:12:14;94364.00;;;22.75;100.00
6680;BME280;3376;42.664;23.346;2023-06-26T06:14:40;94360.38;;;22.81;100.00
6680;BME280;3376;42.664;23.346;2023-06-26T06:17:08;94369.50;;;23.05;100.00
6680;BME280;3376;42.664;23.346;2023-06-26T06:19:35;94364.91;;;23.32;100.00
6680;BME280;3376;42.664;23.346;2023-06-26T06:22:02;94367.09;;;23.55;100.00
6680;BME280;3376;42.664;23.346;2023-06-26T06:24:29;94366.38;;;23.70;99.98
6680;BME280;3376;42.664;23.346;2023-06-26T06:26:56;94367.22;;;23.80;98.15
6680;BME280;3376;42.664;23.346;2023-06-26T06:29:23;94365.00;;;23.52;100.00
6680;BME280;3376;42.664;23.346;2023-06-26T06:31:49;94354.41;;;23.52;99.64
6680;BME280;3376;42.664;23.346;2023-06-26T06:34:18;94373.50;;;23.64;98.78
6680;BME280;3376;42.664;23.346;2023-06-26T06:36:45;94364.81;;;23.69;98.09
6680;BME280;3376;42.664;23.346;2023-06-26T06:39:12;94369.00;;;23.65;97.68
6680;BME280;3376;42.664;23.346;2023-06-26T06:41:39;94363.94;;;23.48;97.77
6680;BME280;3376;42.664;23.346;2023-06-26T06:44:06;94366.91;;;23.67;98.63
6680;BME280;3376;42.664;23.346;2023-06-26T06:46:33;94367.16;;;23.60;98.54
6680;BME280;3376;42.664;23.346;2023-06-26T06:49:00;94366.91;;;23.62;99.76
6680;BME280;3376;42.664;23.346;2023-06-26T06:51:28;94357.94;;;23.78;97.77
6680;BME280;3376;42.664;23.346;2023-06-26T06:53:55;94368.81;;;23.91;96.70
6680;BME280;3376;42.664;23.346;2023-06-26T06:56:22;94360.97;;;24.06;97.59
6680;BME280;3376;42.664;23.346;2023-06-26T06:58:48;94370.78;;;24.21;93.53
6680;BME280;3376;42.664;23.346;2023-06-26T07:01:15;94362.06;;;24.46;91.69
6680;BME280;3376;42.664;23.346;2023-06-26T07:03:42;94354.13;;;24.56;90.78
6680;BME280;3376;42.664;23.346;2023-06-26T07:06:09;94307.72;;;24.63;88.29
6680;BME280;3376;42.664;23.346;2023-06-26T07:08:37;94356.44;;;25.17;87.29
6680;BME280;3376;42.664;23.346;2023-06-26T07:11:04;94360.41;;;25.20;88.50
6680;BME280;3376;42.664;23.346;2023-06-26T07:13:31;94354.88;;;25.06;86.02
6680;BME280;3376;42.664;23.346;2023-06-26T07:15:57;94342.97;;;24.99;86.55
6680;BME280;3376;42.664;23.346;2023-06-26T07:18:24;94351.19;;;24.97;85.90
6680;BME280;3376;42.664;23.346;2023-06-26T07:20:51;94343.50;;;24.81;84.96
6680;BME280;3376;42.664;23.346;2023-06-26T07:23:18;94361.78;;;24.82;87.05
6680;BME280;3376;42.664;23.346;2023-06-26T07:25:46;94374.28;;;24.77;87.74
6680;BME280;3376;42.664;23.346;2023-06-26T07:28:13;94370.00;;;24.81;86.15
6680;BME280;3376;42.664;23.346;2023-06-26T07:30:39;94368.44;;;24.75;85.80
6680;BME280;3376;42.664;23.346;2023-06-26T07:33:06;94290.53;;;24.61;86.14
6680;BME280;3376;42.664;23.346;2023-06-26T07:35:33;94357.75;;;25.20;85.29
6680;BME280;3376;42.664;23.346;2023-06-26T07:38:00;94366.47;;;25.50;82.28
6680;BME280;3376;42.664;23.346;2023-06-26T07:40:26;94368.63;;;25.38;78.99
6680;BME280;3376;42.664;23.346;2023-06-26T07:42:55;94357.72;;;25.25;80.34
6680;BME280;3376;42.664;23.346;2023-06-26T07:45:23;94355.59;;;25.27;80.67
6680;BME280;3376;42.664;23.346;2023-06-26T07:47:50;94363.09;;;25.05;81.06
6680;BME280;3376;42.664;23.346;2023-06-26T07:50:17;94365.22;;;24.93;80.98
6680;BME280;3376;42.664;23.346;2023-06-26T07:52:47;94366.31;;;24.82;80.38
6680;BME280;3376;42.664;23.346;2023-06-26T07:55:13;94358.88;;;24.94;81.07
6680;BME280;3376;42.664;23.346;2023-06-26T07:57:40;94351.94;;;25.18;79.31
6680;BME280;3376;42.664;23.346;2023-06-26T08:00:09;94364.25;;;25.63;78.83
6680;BME280;3376;42.664;23.346;2023-06-26T08:02:37;94363.09;;;25.84;76.83
6680;BME280;3376;42.664;23.346;2023-06-26T08:05:04;94355.66;;;25.86;76.33
6680;BME280;3376;42.664;23.346;2023-06-26T08:07:31;94354.09;;;25.85;75.20
6680;BME280;3376;42.664;23.346;2023-06-26T08:09:58;94347.75;;;25.76;72.79
6680;BME280;3376;42.664;23.346;2023-06-26T08:12:24;94349.44;;;25.57;75.35
6680;BME280;3376;42.664;23.346;2023-06-26T08:14:51;94333.06;;;25.29;76.88
6680;BME280;3376;42.664;23.346;2023-06-26T08:17:19;94345.78;;;25.37;78.55
6680;BME280;3376;42.664;23.346;2023-06-26T08:19:46;94348.38;;;25.58;77.28
6680;BME280;3376;42.664;23.346;2023-06-26T08:22:13;94347.75;;;25.76;75.09
6680;BME280;3376;42.664;23.346;2023-06-26T08:24:39;94353.63;;;25.73;74.80
6680;BME280;3376;42.664;23.346;2023-06-26T08:27:06;94357.56;;;25.75;74.27
6680;BME280;3376;42.664;23.346;2023-06-26T08:29:33;94344.72;;;25.48;75.83
6680;BME280;3376;42.664;23.346;2023-06-26T08:32:00;94343.41;;;25.31;76.35
6680;BME280;3376;42.664;23.346;2023-06-26T08:34:29;94302.78;;;25.35;76.44
6680;BME280;3376;42.664;23.346;2023-06-26T08:36:56;94359.00;;;26.11;74.40
6680;BME280;3376;42.664;23.346;2023-06-26T08:39:23;94340.94;;;26.13;73.68
6680;BME280;3376;42.664;23.346;2023-06-26T08:41:50;94362.81;;;26.39;73.25
6680;BME280;3376;42.664;23.346;2023-06-26T08:44:17;94362.06;;;26.28;73.47
6680;BME280;3376;42.664;23.346;2023-06-26T08:46:44;94361.09;;;26.14;72.64
6680;BME280;3376;42.664;23.346;2023-06-26T08:49:14;94360.28;;;25.65;73.94
6680;BME280;3376;42.664;23.346;2023-06-26T08:51:48;94355.94;;;25.84;74.70
6680;BME280;3376;42.664;23.346;2023-06-26T08:54:17;94353.47;;;25.98;73.65
6680;BME280;3376;42.664;23.346;2023-06-26T08:56:49;94346.69;;;26.25;72.17
6680;BME280;3376;42.664;23.346;2023-06-26T08:59:16;94346.09;;;26.33;71.20
6680;BME280;3376;42.664;23.346;2023-06-26T09:01:43;94359.38;;;26.33;70.42
6680;BME280;3376;42.664;23.346;2023-06-26T09:04:10;94350.81;;;26.41;70.06
6680;BME280;3376;42.664;23.346;2023-06-26T09:06:37;94355.00;;;26.52;68.31
6680;BME280;3376;42.664;23.346;2023-06-26T09:09:06;94344.69;;;26.80;66.77
6680;BME280;3376;42.664;23.346;2023-06-26T09:11:33;94349.78;;;27.05;66.06
6680;BME280;3376;42.664;23.346;2023-06-26T09:14:00;94344.09;;;27.40;66.08
6680;BME280;3376;42.664;23.346;2023-06-26T09:16:30;94321.97;;;27.44;65.92
6680;BME280;3376;42.664;23.346;2023-06-26T09:18:57;94347.22;;;27.47;65.40
6680;BME280;3376;42.664;23.346;2023-06-26T09:21:24;94335.59;;;27.38;66.67
6680;BME280;3376;42.664;23.346;2023-06-26T09:23:52;94342.06;;;27.32;65.11
6680;BME280;3376;42.664;23.346;2023-06-26T09:26:21;94351.47;;;27.48;64.10
6680;BME280;3376;42.664;23.346;2023-06-26T09:28:48;94342.22;;;27.64;65.33
6680;BME280;3376;42.664;23.346;2023-06-26T09:31:15;94331.53;;;27.88;63.18
6680;BME280;3376;42.664;23.346;2023-06-26T09:33:43;94344.03;;;28.11;62.71
6680;BME280;3376;42.664;23.346;2023-06-26T09:36:19;94258.28;;;27.71;64.02
6680;BME280;3376;42.664;23.346;2023-06-26T09:38:46;94309.69;;;28.28;62.07
6680;BME280;3376;42.664;23.346;2023-06-26T09:41:15;94340.63;;;28.61;61.08
6680;BME280;3376;42.664;23.346;2023-06-26T09:43:47;94335.66;;;28.54;60.26
6680;BME280;3376;42.664;23.346;2023-06-26T09:46:15;94330.84;;;28.19;61.73
6680;BME280;3376;42.664;23.346;2023-06-26T09:48:42;94347.28;;;27.84;62.57
6680;BME280;3376;42.664;23.346;2023-06-26T09:51:09;94332.44;;;27.36;64.89
6680;BME280;3376;42.664;23.346;2023-06-26T09:53:36;94341.19;;;27.13;64.23
6680;BME280;3376;42.664;23.346;2023-06-26T09:56:05;94339.28;;;26.90;64.88
6680;BME280;3376;42.664;23.346;2023-06-26T09:58:32;94343.59;;;26.86;64.45
6680;BME280;3376;42.664;23.346;2023-06-26T10:01:01;94344.25;;;27.01;64.99
6680;BME280;3376;42.664;23.346;2023-06-26T10:03:28;94334.88;;;27.04;64.96
6680;BME280;3376;42.664;23.346;2023-06-26T10:05:55;94333.97;;;26.90;63.32
6680;BME280;3376;42.664;23.346;2023-06-26T10:08:22;94335.53;;;26.67;64.06
6680;BME280;3376;42.664;23.346;2023-06-26T10:11:10;94342.28;;;26.49;64.30
6680;BME280;3376;42.664;23.346;2023-06-26T10:13:42;94340.66;;;26.48;64.75
6680;BME280;3376;42.664;23.346;2023-06-26T10:16:13;94340.75;;;26.38;64.68
6680;BME280;3376;42.664;23.346;2023-06-26T10:18:43;94341.78;;;26.42;65.00
6680;BME280;3376;42.664;23.346;2023-06-26T10:21:11;94342.19;;;26.26;64.61
6680;BME280;3376;42.664;23.346;2023-06-26T10:23:41;94337.69;;;26.21;65.34
6680;BME280;3376;42.664;23.346;2023-06-26T10:26:09;94339.31;;;26.17;65.97
6680;BME280;3376;42.664;23.346;2023-06-26T10:28:38;94335.31;;;26.53;64.62
6680;BME280;3376;42.664;23.346;2023-06-26T10:31:07;94343.69;;;26.71;64.61
6680;BME280;3376;42.664;23.346;2023-06-26T10:33:36;94343.72;;;26.65;63.54
6680;BME280;3376;42.664;23.346;2023-06-26T10:36:14;94349.69;;;26.52;61.54
6680;BME280;3376;42.664;23.346;2023-06-26T10:38:51;94337.13;;;26.29;63.25
6680;BME280;3376;42.664;23.346;2023-06-26T10:41:22;94337.78;;;26.06;64.97
6680;BME280;3376;42.664;23.346;2023-06-26T10:43:50;94329.97;;;25.81;65.10
6680;BME280;3376;42.664;23.346;2023-06-26T10:46:18;94343.72;;;25.83;65.31
6680;BME280;3376;42.664;23.346;2023-06-26T10:49:00;94325.97;;;25.79;64.30
6680;BME280;3376;42.664;23.346;2023-06-26T10:51:28;94332.88;;;25.80;64.04
6680;BME280;3376;42.664;23.346;2023-06-26T10:53:56;94314.13;;;25.61;63.64
6680;BME280;3376;42.664;23.346;2023-06-26T10:56:41;94335.56;;;25.70;65.09
6680;BME280;3376;42.664;23.346;2023-06-26T10:59:15;94274.97;;;25.33;65.50
6680;BME280;3376;42.664;23.346;2023-06-26T11:01:43;94317.06;;;25.54;66.81
6680;BME280;3376;42.664;23.346;2023-06-26T11:04:13;94316.59;;;25.42;67.81
6680;BME280;3376;42.664;23.346;2023-06-26T11:06:45;94301.47;;;25.43;67.87
6680;BME280;3376;42.664;23.346;2023-06-26T11:09:15;94331.44;;;25.48;68.73
6680;BME280;3376;42.664;23.346;2023-06-26T11:12:00;94321.09;;;25.42;68.63
6680;BME280;3376;42.664;23.346;2023-06-26T11:14:33;94299.63;;;25.33;67.92
6680;BME280;3376;42.664;23.346;2023-06-26T11:17:02;94322.69;;;25.48;65.32
6680;BME280;3376;42.664;23.346;2023-06-26T11:19:31;94315.16;;;25.65;65.86
6680;BME280;3376;42.664;23.346;2023-06-26T11:21:59;94283.13;;;25.51;66.16
6680;BME280;3376;42.664;23.346;2023-06-26T11:24:26;94316.34;;;25.93;66.97
6680;BME280;3376;42.664;23.346;2023-06-26T11:26:53;94318.34;;;26.16;65.78
6680;BME280;3376;42.664;23.346;2023-06-26T11:29:20;94318.81;;;26.23;63.92
6680;BME280;3376;42.664;23.346;2023-06-26T11:31:47;94314.09;;;26.48;63.89
6680;BME280;3376;42.664;23.346;2023-06-26T11:34:13;94311.44;;;26.48;63.23
6680;BME280;3376;42.664;23.346;2023-06-26T11:36:42;94313.41;;;26.38;63.43
6680;BME280;3376;42.664;23.346;2023-06-26T11:39:11;94321.50;;;26.56;64.15
6680;BME280;3376;42.664;23.346;2023-06-26T11:41:39;94311.81;;;26.65;62.98
6680;BME280;3376;42.664;23.346;2023-06-26T11:44:08;94317.13;;;26.71;61.08
6680;BME280;3376;42.664;23.346;2023-06-26T11:46:35;94317.19;;;26.94;61.10
6680;BME280;3376;42.664;23.346;2023-06-26T11:49:03;94314.00;;;26.92;60.96
6680;BME280;3376;42.664;23.346;2023-06-26T11:51:30;94275.84;;;26.49;61.92
6680;BME280;3376;42.664;23.346;2023-06-26T11:54:01;94306.28;;;26.67;62.83
6680;BME280;3376;42.664;23.346;2023-06-26T11:56:28;94308.94;;;26.67;60.56
6680;BME280;3376;42.664;23.346;2023-06-26T11:58:56;94309.25;;;26.55;61.43
6680;BME280;3376;42.664;23.346;2023-06-26T12:01:24;94272.47;;;26.39;60.92
6680;BME280;3376;42.664;23.346;2023-06-26T12:03:53;94314.94;;;26.78;61.40
6680;BME280;3376;42.664;23.346;2023-06-26T12:06:20;94306.41;;;26.81;61.40
6680;BME280;3376;42.664;23.346;2023-06-26T12:08:47;94297.59;;;26.85;60.42
6680;BME280;3376;42.664;23.346;2023-06-26T12:11:16;94169.47;;;25.97;60.60
6680;BME280;3376;42.664;23.346;2023-06-26T12:13:44;94310.31;;;26.88;61.97
6680;BME280;3376;42.664;23.346;2023-06-26T12:16:12;94307.72;;;27.07;61.20
6680;BME280;3376;42.664;23.346;2023-06-26T12:18:39;94303.03;;;27.22;58.66
6680;BME280;3376;42.664;23.346;2023-06-26T12:21:06;94300.78;;;27.34;57.02
6680;BME280;3376;42.664;23.346;2023-06-26T12:23:33;94307.50;;;27.32;57.94
6680;BME280;3376;42.664;23.346;2023-06-26T12:28:53;94300.88;;;27.48;58.19
6680;BME280;3376;42.664;23.346;2023-06-26T12:31:20;94305.91;;;27.49;57.86
6680;BME280;3376;42.664;23.346;2023-06-26T12:33:48;94308.59;;;27.49;57.09
6680;BME280;3376;42.664;23.346;2023-06-26T12:36:15;94307.81;;;27.49;58.63
6680;BME280;3376;42.664;23.346;2023-06-26T12:38:42;94302.41;;;27.35;56.70
6680;BME280;3376;42.664;23.346;2023-06-26T12:41:14;94198.97;;;26.58;57.29
6680;BME280;3376;42.664;23.346;2023-06-26T12:43:41;94308.13;;;27.19;58.12
6680;BME280;3376;42.664;23.346;2023-06-26T12:46:10;94295.75;;;27.09;58.62
6680;BME280;3376;42.664;23.346;2023-06-26T12:48:38;94294.41;;;27.07;59.56
6680;BME280;3376;42.664;23.346;2023-06-26T12:51:09;94305.00;;;27.12;59.73
6680;BME280;3376;42.664;23.346;2023-06-26T12:53:36;94292.50;;;26.89;60.47
6680;BME280;3376;42.664;23.346;2023-06-26T12:56:05;94278.06;;;26.37;62.10
6680;BME280;3376;42.664;23.346;2023-06-26T12:58:31;94306.16;;;26.43;63.77
6680;BME280;3376;42.664;23.346;2023-06-26T13:00:58;94305.63;;;26.46;63.42
6680;BME280;3376;42.664;23.346;2023-06-26T13:03:27;94305.78;;;26.26;64.32
6680;BME280;3376;42.664;23.346;2023-06-26T13:05:53;94299.50;;;26.12;65.25
6680;BME280;3376;42.664;23.346;2023-06-26T13:08:20;94313.38;;;25.99;66.73
6680;BME280;3376;42.664;23.346;2023-06-26T13:10:47;94298.03;;;25.91;66.63
6680;BME280;3376;42.664;23.346;2023-06-26T13:13:14;94299.13;;;25.85;66.55